createdAt,value
2023-02-15T00:00:12.381Z,43.28
2023-02-15T00:02:41.140Z,42.42
2023-02-15T00:05:10.285Z,47.58
2023-02-15T00:07:38.489Z,48.20
2023-02-15T00:10:10.197Z,50.00
2023-02-15T00:12:38.451Z,40.60
2023-02-15T00:15:07.386Z,51.72
2023-02-15T00:17:35.605Z,55.80
2023-02-15T00:20:03.911Z,38.42
2023-02-15T00:22:32.636Z,42.28
2023-02-15T00:25:00.862Z,39.65
2023-02-15T00:27:30.765Z,43.10
2023-02-15T00:29:59.475Z,44.28
2023-02-15T00:32:27.694Z,42.05
2023-02-15T00:34:55.895Z,40.10
2023-02-15T00:37:26.131Z,40.67
2023-02-15T00:39:54.400Z,42.42
2023-02-15T00:42:22.599Z,30.60
2023-02-15T00:44:52.223Z,35.00
2023-02-15T00:47:22.456Z,33.17
2023-02-15T00:49:50.663Z,32.80
2023-02-15T00:52:19.963Z,35.97
2023-02-15T00:54:48.519Z,29.02
2023-02-15T00:57:16.771Z,35.22
2023-02-15T00:59:45.000Z,33.38
2023-02-15T01:02:16.563Z,30.88
2023-02-15T01:04:45.350Z,33.45
2023-02-15T01:07:13.612Z,33.10
2023-02-15T01:09:41.828Z,31.00
2023-02-15T01:12:10.853Z,33.50
2023-02-15T01:14:39.083Z,42.15
2023-02-15T01:17:07.374Z,42.65
2023-02-15T01:19:38.595Z,35.33
2023-02-15T01:22:14.519Z,38.83
2023-02-15T01:24:43.709Z,27.25
2023-02-15T01:27:11.916Z,40.03
2023-02-15T01:29:40.645Z,21.63
2023-02-15T01:32:09.002Z,30.50
2023-02-15T01:34:38.669Z,35.35
2023-02-15T01:37:06.895Z,41.20
2023-02-15T01:39:36.871Z,33.63
2023-02-15T01:42:05.801Z,29.58
2023-02-15T01:44:50.480Z,31.45
2023-02-15T01:47:23.073Z,25.55
2023-02-15T01:49:59.895Z,25.00
2023-02-15T01:52:28.755Z,27.90
2023-02-15T01:54:57.129Z,28.55
2023-02-15T01:57:27.927Z,26.13
2023-02-15T02:00:01.753Z,25.33
2023-02-15T02:02:41.679Z,27.15
2023-02-15T02:05:11.445Z,26.10
2023-02-15T02:07:43.290Z,27.77
2023-02-15T02:10:13.758Z,23.33
2023-02-15T02:12:44.110Z,23.90
2023-02-15T02:15:13.466Z,32.30
2023-02-15T02:17:51.979Z,27.35
2023-02-15T02:20:37.621Z,32.78
2023-02-15T02:23:24.268Z,21.02
2023-02-15T02:26:27.949Z,26.35
2023-02-15T02:29:42.995Z,23.55
2023-02-15T02:32:54.018Z,20.80
2023-02-15T02:35:29.599Z,17.95
2023-02-15T02:38:09.192Z,22.92
2023-02-15T02:40:49.218Z,24.70
2023-02-15T02:43:24.192Z,21.90
2023-02-15T02:45:58.934Z,34.65
2023-02-15T02:48:31.566Z,28.13
2023-02-15T02:51:01.668Z,22.35
2023-02-15T02:53:33.379Z,23.73
2023-02-15T02:56:08.100Z,20.35
2023-02-15T02:58:41.911Z,23.75
2023-02-15T03:01:15.762Z,21.05
2023-02-15T03:03:48.719Z,18.58
2023-02-15T03:06:22.095Z,22.85
2023-02-15T03:08:57.042Z,19.85
2023-02-15T03:11:25.307Z,21.33
2023-02-15T03:13:54.086Z,23.08
2023-02-15T03:16:29.378Z,30.23
2023-02-15T03:19:03.109Z,23.73
2023-02-15T03:21:37.309Z,20.42
2023-02-15T03:24:12.819Z,18.13
2023-02-15T03:26:42.320Z,19.52
2023-02-15T03:29:12.232Z,23.55
2023-02-15T03:31:44.734Z,22.23
2023-02-15T03:34:15.478Z,37.38
2023-02-15T03:36:48.618Z,27.13
2023-02-15T03:39:23.006Z,16.05
2023-02-15T03:41:59.212Z,20.25
2023-02-15T03:44:30.966Z,24.77
2023-02-15T03:47:06.265Z,25.65
2023-02-15T03:49:44.141Z,31.13
2023-02-15T03:52:16.740Z,16.38
2023-02-15T03:54:47.080Z,22.70
2023-02-15T03:57:38.981Z,34.50
2023-02-15T04:00:31.378Z,19.95
2023-02-15T04:03:25.480Z,17.00
2023-02-15T04:05:53.862Z,16.42
2023-02-15T04:08:44.153Z,22.55
2023-02-15T04:11:11.728Z,24.00
2023-02-15T04:13:39.954Z,22.20
2023-02-15T04:16:08.266Z,22.30
2023-02-15T04:18:59.326Z,29.70
2023-02-15T04:21:47.081Z,25.05
2023-02-15T04:24:34.291Z,21.50
2023-02-15T04:27:04.162Z,25.17
2023-02-15T04:29:33.003Z,25.00
2023-02-15T04:32:02.934Z,24.60
2023-02-15T04:34:31.520Z,26.90
2023-02-15T04:36:59.773Z,31.45
2023-02-15T04:39:29.693Z,25.85
2023-02-15T04:41:58.402Z,14.07
2023-02-15T04:44:26.657Z,20.58
2023-02-15T04:46:55.786Z,22.15
2023-02-15T04:49:24.267Z,18.73
2023-02-15T04:51:52.545Z,20.92
2023-02-15T04:54:21.144Z,20.17
2023-02-15T04:56:50.665Z,16.00
2023-02-15T04:59:19.274Z,17.83
2023-02-15T05:01:47.527Z,16.90
2023-02-15T05:04:16.369Z,16.45
2023-02-15T05:06:44.587Z,17.55
2023-02-15T05:09:13.713Z,18.08
2023-02-15T05:11:41.967Z,20.15
2023-02-15T05:14:11.686Z,19.33
2023-02-15T05:16:40.006Z,20.73
2023-02-15T05:19:08.518Z,23.08
2023-02-15T05:21:36.777Z,13.75
2023-02-15T05:24:25.806Z,21.40
2023-02-15T05:27:11.710Z,17.25
2023-02-15T05:29:41.352Z,10.38
2023-02-15T05:32:09.636Z,15.38
2023-02-15T05:34:37.904Z,26.98
2023-02-15T05:37:06.163Z,22.02
2023-02-15T05:39:34.655Z,17.90
2023-02-15T05:42:03.352Z,28.50
2023-02-15T05:44:31.692Z,21.33
2023-02-15T05:47:01.407Z,17.05
2023-02-15T05:49:29.872Z,19.23
2023-02-15T05:51:58.107Z,21.40
2023-02-15T05:54:26.717Z,17.27
2023-02-15T05:56:54.889Z,19.13
2023-02-15T05:59:23.383Z,16.67
2023-02-15T06:01:51.576Z,30.60
2023-02-15T06:04:21.244Z,21.38
2023-02-15T06:06:50.088Z,18.13
2023-02-15T06:09:19.731Z,19.88
2023-02-15T06:11:48.125Z,16.52
2023-02-15T06:14:16.460Z,23.73
2023-02-15T06:16:44.660Z,18.80
2023-02-15T06:19:12.876Z,14.82
2023-02-15T06:21:42.527Z,19.95
2023-02-15T06:24:11.384Z,18.60
2023-02-15T06:26:39.574Z,18.80
2023-02-15T06:29:07.856Z,18.02
2023-02-15T06:31:36.223Z,18.08
2023-02-15T06:34:04.808Z,15.75
2023-02-15T06:36:33.641Z,19.42
2023-02-15T06:39:04.173Z,15.88
2023-02-15T06:41:32.957Z,14.40
2023-02-15T06:44:01.189Z,16.15
2023-02-15T06:46:29.503Z,13.65
2023-02-15T06:48:57.768Z,17.77
2023-02-15T06:51:26.362Z,20.13
2023-02-15T06:53:54.883Z,19.90
2023-02-15T06:56:24.829Z,19.17
2023-02-15T06:58:53.717Z,13.77
2023-02-15T07:01:22.288Z,12.30
2023-02-15T07:03:50.573Z,19.48
2023-02-15T07:06:19.152Z,13.80
2023-02-15T07:08:47.343Z,17.10
2023-02-15T07:11:32.824Z,17.90
2023-02-15T07:14:02.409Z,17.00
2023-02-15T07:16:30.952Z,17.67
2023-02-15T07:18:59.254Z,14.13
2023-02-15T07:21:27.524Z,24.63
2023-02-15T07:23:58.663Z,13.70
2023-02-15T07:26:27.321Z,21.25
2023-02-15T07:28:55.491Z,19.08
2023-02-15T07:31:25.151Z,10.73
2023-02-15T07:33:53.342Z,15.63
2023-02-15T07:36:21.553Z,14.43
2023-02-15T07:38:49.745Z,12.10
2023-02-15T07:41:18.408Z,15.45
2023-02-15T07:43:47.623Z,13.18
2023-02-15T07:46:17.724Z,15.85
2023-02-15T07:48:47.434Z,14.38
2023-02-15T07:51:16.913Z,12.98
2023-02-15T07:53:45.486Z,9.73
2023-02-15T07:56:15.120Z,17.60
2023-02-15T07:58:56.860Z,15.68
2023-02-15T08:01:27.205Z,32.00
2023-02-15T08:03:57.924Z,10.77
2023-02-15T08:06:28.264Z,8.88
2023-02-15T08:08:56.525Z,11.60
2023-02-15T08:11:35.033Z,9.20
2023-02-15T08:14:05.301Z,11.70
2023-02-15T08:16:36.052Z,10.02
2023-02-15T08:19:07.825Z,8.57
2023-02-15T08:21:37.577Z,15.52
2023-02-15T08:24:07.120Z,9.05
2023-02-15T08:26:36.537Z,10.63
2023-02-15T08:29:05.428Z,9.15
2023-02-15T08:31:34.244Z,11.07
2023-02-15T08:34:02.860Z,9.63
2023-02-15T08:36:33.652Z,12.27
2023-02-15T08:39:03.932Z,8.35
2023-02-15T08:41:33.897Z,13.60
2023-02-15T08:44:05.704Z,9.82
2023-02-15T08:46:36.278Z,9.20
2023-02-15T08:49:04.822Z,8.63
2023-02-15T08:51:36.063Z,5.57
2023-02-15T08:54:07.201Z,14.45
2023-02-15T08:56:38.262Z,7.90
2023-02-15T08:59:08.016Z,8.27
2023-02-15T09:01:37.459Z,9.93
2023-02-15T09:04:09.679Z,8.90
2023-02-15T09:06:40.339Z,6.10
2023-02-15T09:09:09.516Z,7.25
2023-02-15T09:11:40.618Z,8.30
2023-02-15T09:14:11.396Z,5.97
2023-02-15T09:16:40.501Z,6.40
2023-02-15T09:19:09.605Z,11.10
2023-02-15T09:21:40.111Z,8.90
2023-02-15T09:24:14.788Z,5.30
2023-02-15T09:26:47.891Z,6.63
2023-02-15T09:29:16.824Z,10.32
2023-02-15T09:31:47.322Z,5.65
2023-02-15T09:34:19.750Z,12.88
2023-02-15T09:36:57.347Z,8.40
2023-02-15T09:39:27.695Z,9.10
2023-02-15T09:42:29.957Z,5.63
2023-02-15T09:45:21.123Z,18.75
2023-02-15T09:48:03.776Z,8.65
2023-02-15T09:50:41.136Z,7.63
2023-02-15T09:53:27.586Z,5.13
2023-02-15T09:56:07.596Z,16.83
2023-02-15T09:58:46.108Z,7.28
2023-02-15T10:01:22.956Z,10.85
2023-02-15T10:04:06.850Z,11.07
2023-02-15T10:06:43.124Z,13.25
2023-02-15T10:09:42.337Z,11.43
2023-02-15T10:12:31.333Z,17.10
2023-02-15T10:15:16.627Z,10.45
2023-02-15T10:18:01.744Z,6.83
2023-02-15T10:20:37.241Z,10.20
2023-02-15T10:23:21.987Z,6.15
2023-02-15T10:25:56.211Z,7.20
2023-02-15T10:28:30.060Z,7.32
2023-02-15T10:31:05.511Z,5.60
2023-02-15T10:33:41.327Z,8.13
2023-02-15T10:38:54.185Z,8.47
2023-02-15T10:41:37.327Z,12.95
2023-02-15T10:44:18.534Z,15.32
2023-02-15T10:47:16.538Z,7.70
2023-02-15T10:50:17.992Z,6.63
2023-02-15T10:52:59.727Z,10.95
2023-02-15T10:55:36.459Z,7.43
2023-02-15T10:58:14.767Z,9.55
2023-02-15T11:00:47.184Z,6.65
2023-02-15T11:03:32.151Z,7.75
2023-02-15T11:06:06.937Z,6.13
2023-02-15T11:08:38.955Z,6.80
2023-02-15T11:11:11.281Z,9.30
2023-02-15T11:13:45.224Z,6.93
2023-02-15T11:16:18.869Z,5.38
2023-02-15T11:18:53.519Z,6.80
2023-02-15T11:21:24.899Z,9.15
2023-02-15T11:23:54.188Z,14.18
2023-02-15T11:26:30.291Z,9.85
2023-02-15T11:29:04.025Z,10.50
2023-02-15T11:31:49.304Z,6.80
2023-02-15T11:34:23.860Z,8.63
2023-02-15T11:36:59.086Z,10.07
2023-02-15T11:39:33.005Z,4.75
2023-02-15T11:42:06.790Z,6.13
2023-02-15T11:44:43.243Z,4.55
2023-02-15T11:47:13.950Z,5.90
2023-02-15T11:49:42.391Z,8.52
2023-02-15T11:52:24.438Z,4.20
2023-02-15T11:55:00.850Z,11.02
2023-02-15T11:57:36.533Z,18.25
2023-02-15T12:02:40.043Z,6.63
2023-02-15T12:05:14.095Z,12.63
2023-02-15T12:07:49.555Z,8.18
2023-02-15T12:10:22.829Z,7.72
2023-02-15T12:13:12.146Z,7.82
2023-02-15T12:15:53.158Z,7.30
2023-02-15T12:18:37.472Z,7.32
2023-02-15T12:21:09.919Z,8.57
2023-02-15T12:23:52.162Z,11.02
2023-02-15T12:26:27.171Z,8.10
2023-02-15T12:28:58.979Z,7.15
2023-02-15T12:31:33.127Z,7.60
2023-02-15T12:34:07.526Z,6.03
2023-02-15T12:36:47.465Z,7.82
2023-02-15T12:39:23.164Z,7.05
2023-02-15T12:44:38.086Z,11.40
2023-02-15T12:47:19.673Z,5.82
2023-02-15T12:50:12.160Z,8.45
2023-02-15T12:52:41.069Z,4.22
2023-02-15T12:55:20.018Z,12.05
2023-02-15T12:57:48.363Z,8.85
2023-02-15T13:00:32.987Z,4.18
2023-02-15T13:03:03.900Z,6.13
2023-02-15T13:05:35.725Z,5.90
2023-02-15T13:08:12.054Z,5.47
2023-02-15T13:10:47.416Z,3.78
2023-02-15T13:13:22.990Z,5.55
2023-02-15T13:18:37.711Z,4.10
2023-02-15T13:21:15.119Z,1.90
2023-02-15T13:23:49.298Z,6.60
2023-02-15T13:26:21.536Z,5.07
2023-02-15T13:28:52.670Z,5.57
2023-02-15T13:31:22.776Z,5.32
2023-02-15T13:33:56.160Z,2.45
2023-02-15T13:36:31.221Z,4.15
2023-02-15T13:39:11.710Z,4.40
2023-02-15T13:41:55.313Z,7.38
2023-02-15T13:44:37.114Z,5.32
2023-02-15T13:47:19.857Z,6.47
2023-02-15T13:50:05.221Z,4.75
2023-02-15T13:52:42.707Z,8.85
2023-02-15T13:55:42.722Z,8.48
2023-02-15T13:58:39.224Z,7.25
2023-02-15T14:01:12.786Z,8.02
2023-02-15T14:04:06.192Z,4.43
2023-02-15T14:06:59.656Z,5.05
2023-02-15T14:09:42.391Z,11.57
2023-02-15T14:12:25.587Z,5.32
2023-02-15T14:15:21.819Z,7.35
2023-02-15T14:18:08.075Z,5.15
2023-02-15T14:20:51.145Z,4.47
2023-02-15T14:23:32.264Z,4.25
2023-02-15T14:26:04.709Z,6.80
2023-02-15T14:28:43.061Z,11.00
2023-02-15T14:31:15.323Z,5.88
2023-02-15T14:33:49.393Z,7.65
2023-02-15T14:36:21.707Z,4.13
2023-02-15T14:39:01.966Z,3.40
2023-02-15T14:41:38.053Z,2.17
2023-02-15T14:44:22.887Z,4.32
2023-02-15T14:46:57.782Z,2.55
2023-02-15T14:49:28.974Z,14.33
2023-02-15T14:51:59.950Z,3.75
2023-02-15T14:55:01.666Z,3.45
2023-02-15T14:57:35.724Z,2.92
2023-02-15T15:00:38.993Z,4.90
2023-02-15T15:03:23.616Z,4.65
2023-02-15T15:05:55.236Z,5.38
2023-02-15T15:08:35.068Z,5.90
2023-02-15T15:11:43.526Z,7.47
2023-02-15T15:14:43.525Z,2.15
2023-02-15T15:17:37.606Z,5.40
2023-02-15T15:20:14.662Z,3.75
2023-02-15T15:22:44.229Z,4.55
2023-02-15T15:25:34.689Z,6.15
2023-02-15T15:28:05.517Z,10.60
2023-02-15T15:31:04.812Z,8.18
2023-02-15T15:34:20.917Z,7.15
2023-02-15T15:37:31.792Z,6.97
2023-02-15T15:40:53.622Z,6.25
2023-02-15T15:44:03.372Z,5.32
2023-02-15T15:47:03.871Z,12.70
2023-02-15T15:49:34.433Z,6.75
2023-02-15T15:52:04.049Z,13.32
2023-02-15T15:54:32.707Z,7.68
2023-02-15T15:57:04.841Z,3.47
2023-02-15T15:59:36.525Z,14.57
2023-02-15T16:02:11.418Z,5.47
2023-02-15T16:04:39.612Z,7.22
2023-02-15T16:07:26.720Z,10.27
2023-02-15T16:09:59.715Z,7.43
2023-02-15T16:12:30.469Z,13.07
2023-02-15T16:15:03.514Z,6.22
2023-02-15T16:17:34.590Z,13.43
2023-02-15T16:20:07.559Z,8.82
2023-02-15T16:22:36.423Z,6.10
2023-02-15T16:25:33.851Z,9.32
2023-02-15T16:28:09.086Z,5.18
2023-02-15T16:30:40.726Z,6.72
2023-02-15T16:33:10.863Z,7.22
2023-02-15T16:35:40.907Z,7.82
2023-02-15T16:38:12.645Z,13.43
2023-02-15T16:40:53.458Z,11.65
2023-02-15T16:43:26.652Z,14.68
2023-02-15T16:46:08.602Z,9.13
2023-02-15T16:48:41.271Z,16.38
2023-02-15T16:51:10.751Z,10.20
2023-02-15T16:53:40.103Z,13.57
2023-02-15T16:56:08.829Z,7.22
2023-02-15T16:58:42.377Z,11.30
2023-02-15T17:01:14.347Z,16.33
2023-02-15T17:03:44.499Z,7.88
2023-02-15T17:06:23.219Z,10.10
2023-02-15T17:08:52.049Z,16.80
2023-02-15T17:11:21.761Z,17.92
2023-02-15T17:14:15.412Z,16.65
2023-02-15T17:16:50.540Z,14.52
2023-02-15T17:19:25.100Z,10.32
2023-02-15T17:21:56.287Z,13.52
2023-02-15T17:24:36.875Z,12.48
2023-02-15T17:27:14.001Z,12.38
2023-02-15T17:29:45.748Z,17.77
2023-02-15T17:32:21.768Z,11.93
2023-02-15T17:35:09.183Z,11.35
2023-02-15T17:37:49.531Z,11.02
2023-02-15T17:40:22.967Z,10.88
2023-02-15T17:42:51.391Z,12.68
2023-02-15T17:45:20.536Z,9.82
2023-02-15T17:47:51.330Z,11.52
2023-02-15T17:50:23.438Z,15.13
2023-02-15T17:52:52.765Z,11.95
2023-02-15T17:55:39.256Z,22.63
2023-02-15T17:58:09.642Z,23.83
2023-02-15T18:00:58.670Z,11.45
2023-02-15T18:03:51.192Z,13.90
2023-02-15T18:06:36.779Z,10.70
2023-02-15T18:09:23.320Z,17.45
2023-02-15T18:11:52.112Z,15.52
2023-02-15T18:14:21.171Z,11.77
2023-02-15T18:16:49.435Z,10.10
2023-02-15T18:19:22.378Z,15.20
2023-02-15T18:21:52.492Z,16.83
2023-02-15T18:24:24.702Z,19.35
2023-02-15T18:26:53.454Z,17.48
2023-02-15T18:29:22.182Z,12.30
2023-02-15T18:31:55.208Z,14.73
2023-02-15T18:34:29.715Z,13.25
2023-02-15T18:36:59.100Z,11.45
2023-02-15T18:39:40.565Z,12.32
2023-02-15T18:42:20.070Z,11.25
2023-02-15T18:44:48.411Z,13.35
2023-02-15T18:47:16.644Z,16.13
2023-02-15T18:49:46.620Z,10.25
2023-02-15T18:52:18.073Z,13.23
2023-02-15T18:54:47.322Z,14.73
2023-02-15T18:57:17.028Z,11.50
2023-02-15T18:59:45.443Z,15.57
2023-02-15T19:02:15.900Z,21.85
2023-02-15T19:04:45.604Z,17.90
2023-02-15T19:07:19.779Z,15.57
2023-02-15T19:09:51.325Z,11.32
2023-02-15T19:12:20.024Z,14.80
2023-02-15T19:14:48.437Z,16.67
2023-02-15T19:17:18.761Z,13.60
2023-02-15T19:19:48.763Z,13.38
2023-02-15T19:22:18.373Z,20.30
2023-02-15T19:24:48.192Z,13.00
2023-02-15T19:27:24.395Z,18.63
2023-02-15T19:29:53.330Z,15.15
2023-02-15T19:32:21.643Z,14.57
2023-02-15T19:34:51.235Z,17.10
2023-02-15T19:37:25.630Z,18.52
2023-02-15T19:39:54.532Z,14.43
2023-02-15T19:42:26.354Z,16.67
2023-02-15T19:44:54.630Z,14.27
2023-02-15T19:47:23.077Z,23.25
2023-02-15T19:49:52.652Z,20.52
2023-02-15T19:52:24.336Z,18.88
2023-02-15T19:54:54.429Z,15.98
2023-02-15T19:57:24.098Z,17.33
2023-02-15T19:59:52.302Z,14.45
2023-02-15T20:02:20.947Z,18.27
2023-02-15T20:04:49.204Z,9.90
2023-02-15T20:07:25.960Z,12.95
2023-02-15T20:09:54.245Z,24.42
2023-02-15T20:12:24.282Z,19.17
2023-02-15T20:14:53.317Z,14.02
2023-02-15T20:17:21.588Z,13.57
2023-02-15T20:19:49.961Z,17.75
2023-02-15T20:22:24.388Z,9.13
2023-02-15T20:24:55.565Z,15.05
2023-02-15T20:27:24.416Z,13.07
2023-02-15T20:29:55.816Z,14.43
2023-02-15T20:32:24.301Z,13.27
2023-02-15T20:34:52.626Z,14.55
2023-02-15T20:37:26.446Z,18.52
2023-02-15T20:39:55.210Z,14.38
2023-02-15T20:42:23.461Z,11.27
2023-02-15T20:44:51.693Z,8.90
2023-02-15T20:47:19.976Z,14.57
2023-02-15T20:49:48.207Z,20.33
2023-02-15T20:52:20.726Z,14.73
2023-02-15T20:54:50.336Z,17.33
2023-02-15T20:57:18.901Z,18.58
2023-02-15T20:59:47.194Z,22.00
2023-02-15T21:02:22.919Z,15.50
2023-02-15T21:04:51.637Z,13.48
2023-02-15T21:07:21.737Z,13.48
2023-02-15T21:09:52.412Z,13.68
2023-02-15T21:12:22.054Z,19.25
2023-02-15T21:14:50.361Z,13.32
2023-02-15T21:17:18.609Z,14.98
2023-02-15T21:19:46.836Z,11.27
2023-02-15T21:22:17.062Z,16.40
2023-02-15T21:24:50.519Z,13.80
2023-02-15T21:27:20.161Z,16.17
2023-02-15T21:29:48.604Z,17.17
2023-02-15T21:32:16.958Z,13.13
2023-02-15T21:34:45.310Z,15.48
2023-02-15T21:37:28.741Z,13.82
2023-02-15T21:39:56.946Z,18.75
2023-02-15T21:42:43.917Z,16.92
2023-02-15T21:45:33.978Z,17.15
2023-02-15T21:48:02.817Z,14.40
2023-02-15T21:50:48.620Z,14.68
2023-02-15T21:53:23.001Z,12.68
2023-02-15T21:55:52.754Z,12.82
2023-02-15T21:58:24.460Z,10.10
2023-02-15T22:00:54.943Z,18.95
2023-02-15T22:03:24.336Z,10.68
2023-02-15T22:05:52.813Z,13.77
2023-02-15T22:08:21.085Z,13.48
2023-02-15T22:10:49.540Z,14.30
2023-02-15T22:13:24.024Z,20.48
2023-02-15T22:15:53.694Z,16.33
2023-02-15T22:18:24.274Z,14.80
2023-02-15T22:20:52.984Z,13.48
2023-02-15T22:23:21.859Z,11.15
2023-02-15T22:25:55.388Z,10.80
2023-02-15T22:28:28.768Z,12.88
2023-02-15T22:30:58.360Z,10.60
2023-02-15T22:33:29.344Z,9.13
2023-02-15T22:35:57.647Z,18.77
2023-02-15T22:38:25.867Z,11.65
2023-02-15T22:40:57.515Z,13.18
2023-02-15T22:43:45.541Z,8.07
2023-02-15T22:46:18.425Z,16.63
2023-02-15T22:48:48.112Z,12.82
2023-02-15T22:51:17.785Z,15.93
2023-02-15T22:53:46.074Z,7.63
2023-02-15T22:56:19.975Z,20.00
2023-02-15T22:58:50.429Z,10.77
2023-02-15T23:01:24.570Z,16.52
2023-02-15T23:03:52.852Z,8.98
2023-02-15T23:06:21.156Z,14.82
2023-02-15T23:08:49.843Z,22.17
2023-02-15T23:11:19.416Z,15.25
2023-02-15T23:13:49.794Z,16.05
2023-02-15T23:16:19.025Z,12.30
2023-02-15T23:18:50.442Z,16.60
2023-02-15T23:21:21.982Z,17.23
2023-02-15T23:23:51.754Z,15.40
2023-02-15T23:26:23.161Z,10.73
2023-02-15T23:28:52.546Z,14.32
2023-02-15T23:31:22.900Z,11.57
2023-02-15T23:33:54.485Z,12.35
2023-02-15T23:36:29.716Z,17.67
2023-02-15T23:38:59.801Z,12.30
2023-02-15T23:41:30.311Z,13.10
2023-02-15T23:44:01.104Z,15.70
2023-02-15T23:46:34.332Z,13.57
2023-02-15T23:49:14.799Z,10.73
2023-02-15T23:51:45.342Z,16.23
2023-02-15T23:54:14.480Z,12.18
2023-02-15T23:56:44.433Z,19.98
2023-02-15T23:59:16.472Z,11.77
